sensor_id;sensor_type;location;lat;lon;timestamp;pressure;altitude;pressure_sealevel;temperature;humidity
6347;BME280;3206;42.666;23.600;2022-07-29T06:06:09;95360.69;;;23.15;100.00
6347;BME280;3206;42.666;23.600;2022-07-29T06:08:37;95366.97;;;23.35;100.00
6347;BME280;3206;42.666;23.600;2022-07-29T06:11:05;95361.09;;;23.60;100.00
6347;BME280;3206;42.666;23.600;2022-07-29T06:13:33;95374.78;;;24.02;100.00
6347;BME280;3206;42.666;23.600;2022-07-29T06:15:59;95371.06;;;24.12;100.00
6347;BME280;3206;42.666;23.600;2022-07-29T06:18:26;95378.50;;;24.31;100.00
6347;BME280;3206;42.666;23.600;2022-07-29T06:20:53;95368.97;;;24.39;100.00
6347;BME280;3206;42.666;23.600;2022-07-29T06:23:21;95375.34;;;24.72;100.00
6347;BME280;3206;42.666;23.600;2022-07-29T06:25:48;95376.69;;;24.99;100.00
6347;BME280;3206;42.666;23.600;2022-07-29T06:28:15;95380.78;;;25.07;100.00
6347;BME280;3206;42.666;23.600;2022-07-29T06:30:41;95378.81;;;24.92;100.00
6347;BME280;3206;42.666;23.600;2022-07-29T06:33:08;95375.31;;;25.07;100.00
6347;BME280;3206;42.666;23.600;2022-07-29T06:35:35;95371.88;;;25.22;100.00
6347;BME280;3206;42.666;23.600;2022-07-29T06:38:02;95376.41;;;25.29;100.00
6347;BME280;3206;42.666;23.600;2022-07-29T06:40:30;95371.97;;;25.51;100.00
6347;BME280;3206;42.666;23.600;2022-07-29T06:43:15;95365.81;;;25.31;100.00
6347;BME280;3206;42.666;23.600;2022-07-29T06:45:41;95368.72;;;25.40;100.00
6347;BME280;3206;42.666;23.600;2022-07-29T06:48:09;95364.13;;;25.17;100.00
6347;BME280;3206;42.666;23.600;2022-07-29T06:51:06;95356.22;;;25.55;100.00
6347;BME280;3206;42.666;23.600;2022-07-29T06:53:34;95357.22;;;25.77;100.00
6347;BME280;3206;42.666;23.600;2022-07-29T06:56:03;95321.91;;;25.66;100.00
6347;BME280;3206;42.666;23.600;2022-07-29T06:58:30;95356.72;;;25.98;100.00
6347;BME280;3206;42.666;23.600;2022-07-29T07:00:57;95351.03;;;26.05;100.00
6347;BME280;3206;42.666;23.600;2022-07-29T07:03:24;95353.53;;;26.28;100.00
6347;BME280;3206;42.666;23.600;2022-07-29T07:05:52;95359.13;;;26.37;100.00
6347;BME280;3206;42.666;23.600;2022-07-29T07:08:20;95361.94;;;26.49;100.00
6347;BME280;3206;42.666;23.600;2022-07-29T07:10:48;95357.34;;;26.30;100.00
6347;BME280;3206;42.666;23.600;2022-07-29T07:13:17;95353.06;;;26.58;100.00
6347;BME280;3206;42.666;23.600;2022-07-29T07:15:44;95358.75;;;26.51;100.00
6347;BME280;3206;42.666;23.600;2022-07-29T07:18:13;95361.66;;;26.44;100.00
6347;BME280;3206;42.666;23.600;2022-07-29T07:20:40;95358.81;;;26.47;100.00
6347;BME280;3206;42.666;23.600;2022-07-29T07:23:06;95361.22;;;26.33;100.00
6347;BME280;3206;42.666;23.600;2022-07-29T07:25:33;95359.69;;;26.32;100.00
6347;BME280;3206;42.666;23.600;2022-07-29T07:28:00;95355.72;;;26.33;100.00
6347;BME280;3206;42.666;23.600;2022-07-29T07:30:28;95355.41;;;26.31;100.00
6347;BME280;3206;42.666;23.600;2022-07-29T07:32:56;95353.53;;;26.69;100.00
6347;BME280;3206;42.666;23.600;2022-07-29T07:35:22;95355.31;;;26.88;100.00
6347;BME280;3206;42.666;23.600;2022-07-29T07:37:49;95346.81;;;27.11;100.00
6347;BME280;3206;42.666;23.600;2022-07-29T07:40:16;95349.63;;;27.07;100.00
6347;BME280;3206;42.666;23.600;2022-07-29T07:42:42;95357.06;;;27.07;100.00
6347;BME280;3206;42.666;23.600;2022-07-29T07:45:10;95349.63;;;27.19;100.00
6347;BME280;3206;42.666;23.600;2022-07-29T07:47:39;95352.16;;;27.26;100.00
6347;BME280;3206;42.666;23.600;2022-07-29T07:50:08;95347.97;;;27.34;100.00
6347;BME280;3206;42.666;23.600;2022-07-29T07:52:45;95350.28;;;26.99;100.00
6347;BME280;3206;42.666;23.600;2022-07-29T07:55:12;95343.47;;;27.40;100.00
6347;BME280;3206;42.666;23.600;2022-07-29T07:57:39;95339.53;;;27.29;100.00
6347;BME280;3206;42.666;23.600;2022-07-29T08:00:06;95337.66;;;26.89;100.00
6347;BME280;3206;42.666;23.600;2022-07-29T08:02:33;95331.22;;;27.20;100.00
6347;BME280;3206;42.666;23.600;2022-07-29T08:05:02;95336.97;;;27.59;100.00
6347;BME280;3206;42.666;23.600;2022-07-29T08:07:28;95332.66;;;27.58;100.00
6347;BME280;3206;42.666;23.600;2022-07-29T08:09:55;95338.44;;;27.85;93.46
6347;BME280;3206;42.666;23.600;2022-07-29T08:12:22;95331.56;;;28.02;94.79
6347;BME280;3206;42.666;23.600;2022-07-29T08:14:48;95332.50;;;28.21;90.15
6347;BME280;3206;42.666;23.600;2022-07-29T08:17:15;95334.78;;;28.22;92.85
6347;BME280;3206;42.666;23.600;2022-07-29T08:19:42;95335.13;;;28.46;84.17
6347;BME280;3206;42.666;23.600;2022-07-29T08:22:10;95335.03;;;28.58;83.09
6347;BME280;3206;42.666;23.600;2022-07-29T08:24:37;95316.50;;;28.50;72.46
6347;BME280;3206;42.666;23.600;2022-07-29T08:27:12;95334.16;;;28.61;74.65
6347;BME280;3206;42.666;23.600;2022-07-29T08:29:39;95330.53;;;28.73;73.87
6347;BME280;3206;42.666;23.600;2022-07-29T08:32:06;95332.25;;;28.80;75.91
6347;BME280;3206;42.666;23.600;2022-07-29T08:34:33;95317.38;;;28.90;75.17
6347;BME280;3206;42.666;23.600;2022-07-29T08:36:59;95325.41;;;28.84;72.24
6347;BME280;3206;42.666;23.600;2022-07-29T08:39:28;95324.78;;;29.02;69.39
6347;BME280;3206;42.666;23.600;2022-07-29T08:41:55;95323.56;;;28.81;68.06
6347;BME280;3206;42.666;23.600;2022-07-29T08:44:21;95326.28;;;29.42;66.83
6347;BME280;3206;42.666;23.600;2022-07-29T08:46:49;95318.66;;;29.55;63.42
6347;BME280;3206;42.666;23.600;2022-07-29T08:49:16;95318.25;;;29.65;62.11
6347;BME280;3206;42.666;23.600;2022-07-29T08:51:43;95319.03;;;29.84;58.88
6347;BME280;3206;42.666;23.600;2022-07-29T08:54:11;95317.50;;;29.83;57.50
6347;BME280;3206;42.666;23.600;2022-07-29T08:56:44;95313.50;;;30.02;57.68
6347;BME280;3206;42.666;23.600;2022-07-29T08:59:12;95312.41;;;31.45;53.90
6347;BME280;3206;42.666;23.600;2022-07-29T09:01:40;95308.09;;;32.00;50.45
6347;BME280;3206;42.666;23.600;2022-07-29T09:04:11;95318.03;;;32.44;48.14
6347;BME280;3206;42.666;23.600;2022-07-29T09:06:42;95315.63;;;33.58;47.62
6347;BME280;3206;42.666;23.600;2022-07-29T09:09:10;95308.78;;;34.28;45.02
6347;BME280;3206;42.666;23.600;2022-07-29T09:11:37;95300.94;;;34.52;43.98
6347;BME280;3206;42.666;23.600;2022-07-29T09:14:05;95301.91;;;35.00;42.97
6347;BME280;3206;42.666;23.600;2022-07-29T09:16:49;95312.16;;;35.51;41.96
6347;BME280;3206;42.666;23.600;2022-07-29T09:19:24;95312.28;;;35.36;41.05
6347;BME280;3206;42.666;23.600;2022-07-29T09:21:52;95314.59;;;36.27;39.48
6347;BME280;3206;42.666;23.600;2022-07-29T09:24:27;95306.59;;;36.56;38.34
6347;BME280;3206;42.666;23.600;2022-07-29T09:26:54;95311.84;;;36.49;38.01
6347;BME280;3206;42.666;23.600;2022-07-29T09:29:23;95313.97;;;36.92;38.68
6347;BME280;3206;42.666;23.600;2022-07-29T09:31:51;95308.16;;;36.96;36.68
6347;BME280;3206;42.666;23.600;2022-07-29T09:34:22;95317.03;;;37.38;35.23
6347;BME280;3206;42.666;23.600;2022-07-29T09:36:51;95312.13;;;37.88;35.39
6347;BME280;3206;42.666;23.600;2022-07-29T09:39:27;95321.91;;;38.22;34.78
6347;BME280;3206;42.666;23.600;2022-07-29T09:41:55;95307.56;;;38.53;34.77
6347;BME280;3206;42.666;23.600;2022-07-29T09:44:24;95299.94;;;40.24;32.79
6347;BME280;3206;42.666;23.600;2022-07-29T09:46:56;95301.31;;;39.94;32.66
6347;BME280;3206;42.666;23.600;2022-07-29T09:49:23;95298.97;;;40.40;31.59
6347;BME280;3206;42.666;23.600;2022-07-29T09:52:00;95297.19;;;39.77;31.65
6347;BME280;3206;42.666;23.600;2022-07-29T09:54:27;95289.84;;;39.97;31.61
6347;BME280;3206;42.666;23.600;2022-07-29T09:56:55;95285.34;;;38.31;33.21
6347;BME280;3206;42.666;23.600;2022-07-29T09:59:21;95253.03;;;38.46;33.33
6347;BME280;3206;42.666;23.600;2022-07-29T10:01:53;95283.00;;;39.45;32.80
6347;BME280;3206;42.666;23.600;2022-07-29T10:04:19;95289.13;;;38.39;34.78
6347;BME280;3206;42.666;23.600;2022-07-29T10:06:56;95272.78;;;39.24;33.98
6347;BME280;3206;42.666;23.600;2022-07-29T10:09:23;95279.25;;;39.08;34.44
6347;BME280;3206;42.666;23.600;2022-07-29T10:12:06;95269.38;;;40.26;33.91
6347;BME280;3206;42.666;23.600;2022-07-29T10:14:34;95268.69;;;40.57;32.98
6347;BME280;3206;42.666;23.600;2022-07-29T10:17:04;95263.13;;;41.20;32.71
6347;BME280;3206;42.666;23.600;2022-07-29T10:19:33;95267.88;;;41.12;32.67
6347;BME280;3206;42.666;23.600;2022-07-29T10:22:02;95259.91;;;41.16;33.92
6347;BME280;3206;42.666;23.600;2022-07-29T10:24:30;95256.94;;;41.27;33.11
6347;BME280;3206;42.666;23.600;2022-07-29T10:26:59;95255.03;;;42.00;32.92
6347;BME280;3206;42.666;23.600;2022-07-29T10:29:26;95257.00;;;41.79;31.86
6347;BME280;3206;42.666;23.600;2022-07-29T10:32:08;95248.00;;;41.10;32.50
6347;BME280;3206;42.666;23.600;2022-07-29T10:34:53;95247.59;;;42.62;32.23
6347;BME280;3206;42.666;23.600;2022-07-29T10:37:33;95238.19;;;43.62;31.08
6347;BME280;3206;42.666;23.600;2022-07-29T10:40:13;95232.06;;;42.48;31.44
6347;BME280;3206;42.666;23.600;2022-07-29T10:43:14;95236.13;;;43.34;31.07
6347;BME280;3206;42.666;23.600;2022-07-29T10:45:43;95239.06;;;41.82;31.00
6347;BME280;3206;42.666;23.600;2022-07-29T10:48:12;95226.88;;;40.78;32.89
6347;BME280;3206;42.666;23.600;2022-07-29T10:50:55;95223.06;;;41.90;32.02
6347;BME280;3206;42.666;23.600;2022-07-29T10:53:23;95215.63;;;41.93;31.79
6347;BME280;3206;42.666;23.600;2022-07-29T10:55:51;95215.22;;;42.48;30.53
6347;BME280;3206;42.666;23.600;2022-07-29T10:58:20;95223.38;;;43.33;30.40
6347;BME280;3206;42.666;23.600;2022-07-29T11:00:49;95216.28;;;44.39;29.35
6347;BME280;3206;42.666;23.600;2022-07-29T11:03:45;95216.47;;;42.60;30.13
6347;BME280;3206;42.666;23.600;2022-07-29T11:06:13;95211.47;;;43.07;30.09
6347;BME280;3206;42.666;23.600;2022-07-29T11:08:40;95207.47;;;42.95;29.28
6347;BME280;3206;42.666;23.600;2022-07-29T11:11:34;95210.47;;;43.17;28.94
6347;BME280;3206;42.666;23.600;2022-07-29T11:14:02;95197.09;;;42.90;28.44
6347;BME280;3206;42.666;23.600;2022-07-29T11:17:03;95208.84;;;41.75;30.71
6347;BME280;3206;42.666;23.600;2022-07-29T11:19:32;95209.47;;;41.55;30.72
6347;BME280;3206;42.666;23.600;2022-07-29T11:21:59;95209.72;;;41.13;30.69
6347;BME280;3206;42.666;23.600;2022-07-29T11:24:28;95197.19;;;40.69;30.80
6347;BME280;3206;42.666;23.600;2022-07-29T11:27:23;95189.63;;;41.79;29.40
6347;BME280;3206;42.666;23.600;2022-07-29T11:29:58;95165.59;;;43.12;28.66
6347;BME280;3206;42.666;23.600;2022-07-29T11:32:36;95180.00;;;43.29;28.82
6347;BME280;3206;42.666;23.600;2022-07-29T11:35:16;95187.97;;;43.17;29.34
6347;BME280;3206;42.666;23.600;2022-07-29T11:37:43;95170.22;;;43.86;28.88
6347;BME280;3206;42.666;23.600;2022-07-29T11:40:13;95180.53;;;44.84;27.78
6347;BME280;3206;42.666;23.600;2022-07-29T11:42:45;95178.44;;;44.12;27.68
6347;BME280;3206;42.666;23.600;2022-07-29T11:45:14;95175.16;;;43.37;28.88
6347;BME280;3206;42.666;23.600;2022-07-29T11:47:48;95172.22;;;43.22;28.95
6347;BME280;3206;42.666;23.600;2022-07-29T11:50:17;95164.13;;;44.02;28.21
6347;BME280;3206;42.666;23.600;2022-07-29T11:52:46;95170.38;;;44.16;28.03
6347;BME280;3206;42.666;23.600;2022-07-29T11:55:15;95164.16;;;44.10;27.11
6347;BME280;3206;42.666;23.600;2022-07-29T11:57:46;95172.28;;;43.01;28.69
6347;BME280;3206;42.666;23.600;2022-07-29T12:00:22;95159.59;;;43.36;27.80
6347;BME280;3206;42.666;23.600;2022-07-29T12:02:49;95163.84;;;44.36;26.67
6347;BME280;3206;42.666;23.600;2022-07-29T12:05:18;95158.66;;;44.62;27.17
6347;BME280;3206;42.666;23.600;2022-07-29T12:07:45;95165.66;;;44.98;26.33
6347;BME280;3206;42.666;23.600;2022-07-29T12:10:12;95159.50;;;44.27;26.90
6347;BME280;3206;42.666;23.600;2022-07-29T12:12:38;95152.88;;;44.90;26.57
6347;BME280;3206;42.666;23.600;2022-07-29T12:15:13;95153.63;;;45.28;26.01
6347;BME280;3206;42.666;23.600;2022-07-29T12:17:41;95162.22;;;44.62;26.11
6347;BME280;3206;42.666;23.600;2022-07-29T12:20:08;95168.81;;;44.57;26.98
6347;BME280;3206;42.666;23.600;2022-07-29T12:22:38;95153.81;;;45.07;26.18
6347;BME280;3206;42.666;23.600;2022-07-29T12:25:08;95162.13;;;43.82;26.09
6347;BME280;3206;42.666;23.600;2022-07-29T12:27:36;95161.47;;;44.62;26.01
6347;BME280;3206;42.666;23.600;2022-07-29T12:30:05;95151.75;;;44.85;26.05
6347;BME280;3206;42.666;23.600;2022-07-29T12:32:34;95113.22;;;44.00;25.68
6347;BME280;3206;42.666;23.600;2022-07-29T12:35:05;95150.22;;;44.04;26.55
6347;BME280;3206;42.666;23.600;2022-07-29T12:37:33;95157.66;;;44.37;27.11
6347;BME280;3206;42.666;23.600;2022-07-29T12:40:06;95151.88;;;44.72;26.80
6347;BME280;3206;42.666;23.600;2022-07-29T12:42:33;95151.22;;;44.29;25.61
6347;BME280;3206;42.666;23.600;2022-07-29T12:45:00;95148.16;;;44.05;25.99
6347;BME280;3206;42.666;23.600;2022-07-29T12:47:28;95151.47;;;43.25;26.68
6347;BME280;3206;42.666;23.600;2022-07-29T12:50:08;95147.69;;;43.02;26.47
6347;BME280;3206;42.666;23.600;2022-07-29T12:52:35;95141.22;;;43.63;26.41
6347;BME280;3206;42.666;23.600;2022-07-29T12:55:07;95146.81;;;44.63;25.78
6347;BME280;3206;42.666;23.600;2022-07-29T12:57:44;95133.78;;;43.45;26.23
6347;BME280;3206;42.666;23.600;2022-07-29T13:00:13;95130.28;;;44.67;25.89
6347;BME280;3206;42.666;23.600;2022-07-29T13:02:41;95132.16;;;45.32;24.95
6347;BME280;3206;42.666;23.600;2022-07-29T13:05:10;95131.25;;;44.85;25.23
6347;BME280;3206;42.666;23.600;2022-07-29T13:07:38;95132.66;;;43.76;25.24
6347;BME280;3206;42.666;23.600;2022-07-29T13:10:15;95121.56;;;43.78;25.33
6347;BME280;3206;42.666;23.600;2022-07-29T13:13:01;95130.00;;;41.86;27.17
6347;BME280;3206;42.666;23.600;2022-07-29T13:15:28;95117.31;;;40.94;28.23
6347;BME280;3206;42.666;23.600;2022-07-29T13:17:55;95109.13;;;42.08;27.19
6347;BME280;3206;42.666;23.600;2022-07-29T13:20:24;95107.94;;;42.36;26.71
6347;BME280;3206;42.666;23.600;2022-07-29T13:22:52;95111.97;;;43.10;25.91
6347;BME280;3206;42.666;23.600;2022-07-29T13:25:25;95102.22;;;44.25;25.98
6347;BME280;3206;42.666;23.600;2022-07-29T13:27:52;95098.75;;;44.84;24.70
6347;BME280;3206;42.666;23.600;2022-07-29T13:30:21;95070.06;;;44.05;25.39
6347;BME280;3206;42.666;23.600;2022-07-29T13:32:49;95093.97;;;42.64;26.61
6347;BME280;3206;42.666;23.600;2022-07-29T13:35:16;95101.19;;;42.80;26.58
6347;BME280;3206;42.666;23.600;2022-07-29T13:37:43;95095.78;;;43.31;25.78
6347;BME280;3206;42.666;23.600;2022-07-29T13:40:11;95100.81;;;42.76;27.47
6347;BME280;3206;42.666;23.600;2022-07-29T13:42:39;95074.31;;;43.99;25.34
6347;BME280;3206;42.666;23.600;2022-07-29T13:45:07;95093.28;;;45.16;24.72
6347;BME280;3206;42.666;23.600;2022-07-29T13:47:36;95078.34;;;43.68;25.42
6347;BME280;3206;42.666;23.600;2022-07-29T13:50:04;95087.25;;;44.52;24.92
6347;BME280;3206;42.666;23.600;2022-07-29T13:52:31;95084.50;;;44.02;25.63
6347;BME280;3206;42.666;23.600;2022-07-29T13:54:59;95091.84;;;44.20;25.13
6347;BME280;3206;42.666;23.600;2022-07-29T13:57:27;95078.53;;;45.32;24.05
6347;BME280;3206;42.666;23.600;2022-07-29T13:59:55;95087.97;;;45.12;24.35
6347;BME280;3206;42.666;23.600;2022-07-29T14:02:22;95084.03;;;45.00;24.68
6347;BME280;3206;42.666;23.600;2022-07-29T14:04:49;95078.91;;;45.36;23.84
6347;BME280;3206;42.666;23.600;2022-07-29T14:07:16;95085.84;;;45.50;23.61
6347;BME280;3206;42.666;23.600;2022-07-29T14:09:42;95086.72;;;45.75;23.80
6347;BME280;3206;42.666;23.600;2022-07-29T14:12:09;95086.31;;;44.94;23.47
6347;BME280;3206;42.666;23.600;2022-07-29T14:14:37;95085.19;;;44.97;24.25
6347;BME280;3206;42.666;23.600;2022-07-29T14:17:05;95087.72;;;45.48;23.21
6347;BME280;3206;42.666;23.600;2022-07-29T14:19:32;95086.53;;;45.73;23.27
6347;BME280;3206;42.666;23.600;2022-07-29T14:22:01;95087.72;;;46.02;23.62
6347;BME280;3206;42.666;23.600;2022-07-29T14:24:28;95084.38;;;45.27;24.45
6347;BME280;3206;42.666;23.600;2022-07-29T14:26:56;95074.25;;;45.24;23.96
6347;BME280;3206;42.666;23.600;2022-07-29T14:29:22;95078.66;;;45.64;23.78
6347;BME280;3206;42.666;23.600;2022-07-29T14:31:49;95078.28;;;46.39;23.40
6347;BME280;3206;42.666;23.600;2022-07-29T14:34:17;95084.56;;;46.30;22.59
6347;BME280;3206;42.666;23.600;2022-07-29T14:36:44;95082.72;;;43.84;24.93
6347;BME280;3206;42.666;23.600;2022-07-29T14:39:11;95072.06;;;43.47;25.17
6347;BME280;3206;42.666;23.600;2022-07-29T14:41:37;95069.75;;;44.98;24.09
6347;BME280;3206;42.666;23.600;2022-07-29T14:44:04;95081.72;;;45.36;24.56
6347;BME280;3206;42.666;23.600;2022-07-29T14:46:31;95075.69;;;45.47;23.43
6347;BME280;3206;42.666;23.600;2022-07-29T14:48:57;95079.16;;;44.93;24.09
6347;BME280;3206;42.666;23.600;2022-07-29T14:51:26;95075.94;;;45.89;23.39
6347;BME280;3206;42.666;23.600;2022-07-29T14:53:52;95076.41;;;45.55;23.66
6347;BME280;3206;42.666;23.600;2022-07-29T14:56:19;95079.91;;;45.78;23.12
6347;BME280;3206;42.666;23.600;2022-07-29T14:58:46;95069.19;;;43.75;24.21
6347;BME280;3206;42.666;23.600;2022-07-29T15:01:12;95074.75;;;43.60;24.65
6347;BME280;3206;42.666;23.600;2022-07-29T15:03:39;95070.97;;;42.94;25.47
6347;BME280;3206;42.666;23.600;2022-07-29T15:06:06;95082.66;;;44.12;24.10
6347;BME280;3206;42.666;23.600;2022-07-29T15:08:34;95082.88;;;43.71;25.13
6347;BME280;3206;42.666;23.600;2022-07-29T15:11:01;95091.94;;;43.49;25.07
6347;BME280;3206;42.666;23.600;2022-07-29T15:13:27;95083.06;;;43.37;24.83
6347;BME280;3206;42.666;23.600;2022-07-29T15:15:54;95078.00;;;44.44;24.78
6347;BME280;3206;42.666;23.600;2022-07-29T15:18:21;95067.34;;;43.14;25.13
6347;BME280;3206;42.666;23.600;2022-07-29T15:20:48;95072.06;;;43.47;25.09
6347;BME280;3206;42.666;23.600;2022-07-29T15:23:14;95072.53;;;44.16;24.76
6347;BME280;3206;42.666;23.600;2022-07-29T15:25:43;95065.44;;;44.67;23.72
6347;BME280;3206;42.666;23.600;2022-07-29T15:28:09;95062.78;;;44.54;24.15
6347;BME280;3206;42.666;23.600;2022-07-29T15:30:36;95042.72;;;43.70;25.10
6347;BME280;3206;42.666;23.600;2022-07-29T15:33:06;95049.91;;;43.94;24.87
6347;BME280;3206;42.666;23.600;2022-07-29T15:35:33;95052.81;;;44.39;23.78
6347;BME280;3206;42.666;23.600;2022-07-29T15:38:00;95059.97;;;44.40;23.98
6347;BME280;3206;42.666;23.600;2022-07-29T15:40:27;95050.00;;;44.16;24.05
6347;BME280;3206;42.666;23.600;2022-07-29T15:42:55;95050.59;;;44.45;24.52
6347;BME280;3206;42.666;23.600;2022-07-29T15:45:22;95057.75;;;44.83;24.09
6347;BME280;3206;42.666;23.600;2022-07-29T15:47:48;95057.16;;;43.67;24.99
6347;BME280;3206;42.666;23.600;2022-07-29T15:50:15;95052.28;;;43.67;24.23
6347;BME280;3206;42.666;23.600;2022-07-29T15:52:43;95040.59;;;44.14;24.26
6347;BME280;3206;42.666;23.600;2022-07-29T15:55:10;95050.91;;;42.69;25.50
6347;BME280;3206;42.666;23.600;2022-07-29T15:57:36;95058.75;;;41.30;26.08
6347;BME280;3206;42.666;23.600;2022-07-29T16:00:07;95057.97;;;40.20;27.42
6347;BME280;3206;42.666;23.600;2022-07-29T16:02:34;95057.41;;;40.03;27.93
6347;BME280;3206;42.666;23.600;2022-07-29T16:05:01;95048.47;;;39.73;28.12
6347;BME280;3206;42.666;23.600;2022-07-29T16:07:28;95041.56;;;39.37;28.18
6347;BME280;3206;42.666;23.600;2022-07-29T16:09:54;95047.63;;;39.60;28.19
6347;BME280;3206;42.666;23.600;2022-07-29T16:12:21;95047.66;;;40.09;27.58
6347;BME280;3206;42.666;23.600;2022-07-29T16:14:48;95057.91;;;39.70;28.31
6347;BME280;3206;42.666;23.600;2022-07-29T16:17:17;95058.38;;;40.24;27.43
6347;BME280;3206;42.666;23.600;2022-07-29T16:19:44;95054.50;;;40.27;27.47
6347;BME280;3206;42.666;23.600;2022-07-29T16:22:11;95059.75;;;40.49;27.54
6347;BME280;3206;42.666;23.600;2022-07-29T16:24:38;95070.03;;;40.28;27.40
6347;BME280;3206;42.666;23.600;2022-07-29T16:27:05;95061.97;;;40.37;27.23
6347;BME280;3206;42.666;23.600;2022-07-29T16:29:32;95068.94;;;39.81;28.11
6347;BME280;3206;42.666;23.600;2022-07-29T16:31:59;95067.94;;;39.97;28.01
6347;BME280;3206;42.666;23.600;2022-07-29T16:34:27;95065.75;;;39.53;28.29
6347;BME280;3206;42.666;23.600;2022-07-29T16:36:54;95075.97;;;39.08;28.88
6347;BME280;3206;42.666;23.600;2022-07-29T16:39:20;95068.81;;;38.65;29.31
6347;BME280;3206;42.666;23.600;2022-07-29T16:41:47;95080.31;;;38.26;30.23
6347;BME280;3206;42.666;23.600;2022-07-29T16:44:14;95087.56;;;36.97;31.47
6347;BME280;3206;42.666;23.600;2022-07-29T16:46:42;95088.66;;;36.34;32.63
6347;BME280;3206;42.666;23.600;2022-07-29T16:49:09;95098.22;;;35.78;33.33
6347;BME280;3206;42.666;23.600;2022-07-29T16:51:37;95093.56;;;34.89;34.49
6347;BME280;3206;42.666;23.600;2022-07-29T16:54:04;95093.91;;;34.29;35.92
6347;BME280;3206;42.666;23.600;2022-07-29T16:56:31;95097.31;;;33.62;37.48
6347;BME280;3206;42.666;23.600;2022-07-29T16:58:57;95100.44;;;33.10;38.38
6347;BME280;3206;42.666;23.600;2022-07-29T17:01:24;95096.28;;;32.80;38.98
6347;BME280;3206;42.666;23.600;2022-07-29T17:03:51;95094.19;;;32.12;40.15
6347;BME280;3206;42.666;23.600;2022-07-29T17:06:33;95105.06;;;31.86;40.88
6347;BME280;3206;42.666;23.600;2022-07-29T17:09:02;95099.47;;;31.14;41.92
6347;BME280;3206;42.666;23.600;2022-07-29T17:11:29;95098.63;;;30.99;43.22
6347;BME280;3206;42.666;23.600;2022-07-29T17:13:56;95095.16;;;30.90;43.70
6347;BME280;3206;42.666;23.600;2022-07-29T17:16:24;95095.03;;;30.52;44.83
6347;BME280;3206;42.666;23.600;2022-07-29T17:18:51;95087.44;;;30.38;45.43
6347;BME280;3206;42.666;23.600;2022-07-29T17:21:18;95094.84;;;30.32;45.43
6347;BME280;3206;42.666;23.600;2022-07-29T17:23:45;95105.94;;;30.14;46.48
6347;BME280;3206;42.666;23.600;2022-07-29T17:26:14;95098.66;;;29.84;47.46
6347;BME280;3206;42.666;23.600;2022-07-29T17:28:41;95106.97;;;29.75;47.52
6347;BME280;3206;42.666;23.600;2022-07-29T17:31:08;95095.81;;;29.69;47.98
6347;BME280;3206;42.666;23.600;2022-07-29T17:33:35;95105.75;;;29.40;49.52
6347;BME280;3206;42.666;23.600;2022-07-29T17:36:02;95110.34;;;29.16;50.96
6347;BME280;3206;42.666;23.600;2022-07-29T17:38:46;95093.38;;;28.91;53.08
6347;BME280;3206;42.666;23.600;2022-07-29T17:41:14;95094.84;;;28.83;53.11
6347;BME280;3206;42.666;23.600;2022-07-29T17:43:41;95111.66;;;28.76;54.96
6347;BME280;3206;42.666;23.600;2022-07-29T17:46:08;95111.22;;;28.77;54.88
6347;BME280;3206;42.666;23.600;2022-07-29T17:48:35;95110.75;;;28.70;54.74
6347;BME280;3206;42.666;23.600;2022-07-29T17:51:02;95111.19;;;28.59;55.61
6347;BME280;3206;42.666;23.600;2022-07-29T17:53:29;95100.03;;;28.23;55.94
6347;BME280;3206;42.666;23.600;2022-07-29T17:55:55;95107.81;;;28.25;56.49
6347;BME280;3206;42.666;23.600;2022-07-29T17:58:24;95121.03;;;28.08;57.98
6347;BME280;3206;42.666;23.600;2022-07-29T18:00:51;95119.50;;;28.07;57.49
6347;BME280;3206;42.666;23.600;2022-07-29T18:03:18;95115.28;;;28.15;57.63
6347;BME280;3206;42.666;23.600;2022-07-29T18:05:45;95116.66;;;28.20;57.90
6347;BME280;3206;42.666;23.600;2022-07-29T18:08:12;95125.41;;;28.27;58.24
6347;BME280;3206;42.666;23.600;2022-07-29T18:10:38;95122.28;;;28.16;59.17
6347;BME280;3206;42.666;23.600;2022-07-29T18:13:06;95141.94;;;28.06;60.92
6347;BME280;3206;42.666;23.600;2022-07-29T18:15:34;95138.41;;;28.05;60.46
6347;BME280;3206;42.666;23.600;2022-07-29T18:18:01;95132.88;;;27.96;60.78
6347;BME280;3206;42.666;23.600;2022-07-29T18:20:28;95137.56;;;27.87;61.55
6347;BME280;3206;42.666;23.600;2022-07-29T18:22:55;95140.75;;;27.85;62.79
6347;BME280;3206;42.666;23.600;2022-07-29T18:25:22;95141.47;;;27.77;65.76
6347;BME280;3206;42.666;23.600;2022-07-29T18:27:48;95146.75;;;27.71;65.93
6347;BME280;3206;42.666;23.600;2022-07-29T18:30:15;95154.94;;;27.62;67.92
6347;BME280;3206;42.666;23.600;2022-07-29T18:32:44;95160.22;;;27.57;67.40
6347;BME280;3206;42.666;23.600;2022-07-29T18:35:10;95163.09;;;27.53;69.82
6347;BME280;3206;42.666;23.600;2022-07-29T18:37:37;95159.06;;;27.45;72.49
6347;BME280;3206;42.666;23.600;2022-07-29T18:40:05;95160.53;;;27.37;74.38
6347;BME280;3206;42.666;23.600;2022-07-29T18:42:31;95163.31;;;27.25;78.54
6347;BME280;3206;42.666;23.600;2022-07-29T18:44:59;95164.97;;;27.22;75.56
6347;BME280;3206;42.666;23.600;2022-07-29T18:47:25;95165.53;;;27.17;76.23
6347;BME280;3206;42.666;23.600;2022-07-29T18:49:54;95166.13;;;27.13;78.53
6347;BME280;3206;42.666;23.600;2022-07-29T18:52:20;95162.34;;;27.07;80.70
6347;BME280;3206;42.666;23.600;2022-07-29T18:54:47;95172.69;;;27.03;78.63
6347;BME280;3206;42.666;23.600;2022-07-29T18:57:13;95169.09;;;26.93;82.28
6347;BME280;3206;42.666;23.600;2022-07-29T18:59:40;95171.50;;;26.91;81.96
6347;BME280;3206;42.666;23.600;2022-07-29T19:02:08;95179.84;;;26.88;83.09
6347;BME280;3206;42.666;23.600;2022-07-29T19:04:34;95177.34;;;26.81;86.45
6347;BME280;3206;42.666;23.600;2022-07-29T19:07:02;95163.66;;;26.68;86.49
6347;BME280;3206;42.666;23.600;2022-07-29T19:09:29;95176.63;;;26.55;90.98
6347;BME280;3206;42.666;23.600;2022-07-29T19:11:56;95174.94;;;26.33;95.15
6347;BME280;3206;42.666;23.600;2022-07-29T19:14:23;95178.88;;;26.07;99.40
6347;BME280;3206;42.666;23.600;2022-07-29T19:16:49;95175.03;;;26.04;100.00
6347;BME280;3206;42.666;23.600;2022-07-29T19:19:16;95185.09;;;25.95;100.00
6347;BME280;3206;42.666;23.600;2022-07-29T19:21:43;95180.34;;;25.83;100.00
6347;BME280;3206;42.666;23.600;2022-07-29T19:24:12;95191.41;;;25.51;100.00